Time;durP1;ratioP1;P1;durP2;ratioP2;P2;SDS_P1;SDS_P2;PMS_P1;PMS_P2;Temp;Humidity;BMP_temperature;BMP_pressure;BME280_temperature;BME280_humidity;BME280_pressure;Samples;Min_cycle;Max_cycle;Signal;HPM_P1;HPM_P2
2022/08/17 03:02:03;;;;;;;;;;;27.40;38.70;;;;;;5143959;23;45744;-62
2022/08/17 03:04:29;;;;;;;;;;;27.40;38.70;;;;;;4885390;29;44937;-61
2022/08/17 03:06:55;;;;;;;;;;;27.40;38.70;;;;;;4888848;29;45268;-62
2022/08/17 03:09:20;;;;;;;;;;;27.40;38.70;;;;;;4910621;28;45453;-60
2022/08/17 03:11:46;;;;;;;;;;;27.40;38.80;;;;;;4908768;28;46002;-62
2022/08/17 03:14:11;;;;;;;;;;;27.40;38.80;;;;;;4895278;28;45635;-62
2022/08/17 03:16:37;;;;;;;;;;;27.40;38.80;;;;;;4894981;29;45377;-61
2022/08/17 03:19:03;;;;;;;;;;;27.30;38.70;;;;;;4892214;28;45719;-62
2022/08/17 03:21:28;;;;;;;;;;;27.30;38.80;;;;;;4891954;29;45477;-62
2022/08/17 03:23:54;;;;;;;;;;;27.30;38.90;;;;;;4894972;29;45468;-62
2022/08/17 03:26:19;;;;;;;;;;;27.30;38.90;;;;;;4894080;29;45565;-62
2022/08/17 03:28:45;;;;;;;;;;;27.30;38.90;;;;;;4893732;29;45075;-62
2022/08/17 03:31:10;;;;;;;;;;;27.20;38.90;;;;;;4876276;29;46016;-62
2022/08/17 03:33:36;;;;;;;;;;;27.30;39.10;;;;;;4894311;28;44957;-62
2022/08/17 03:36:02;;;;;;;;;;;27.20;39.10;;;;;;4891767;29;45668;-62
2022/08/17 03:38:28;;;;;;;;;;;27.20;39.20;;;;;;4889557;29;45921;-62
2022/08/17 03:40:53;;;;;;;;;;;27.20;39.20;;;;;;4887379;29;46102;-62
2022/08/17 03:43:20;;;;;;;;;;;27.20;39.20;;;;;;4888894;28;44678;-62
2022/08/17 03:56:45;;;;;;;;;;;27.10;39.50;;;;;;4893618;29;45499;-62
2022/08/17 03:59:15;;;;;;;;;;;27.10;39.60;;;;;;4893115;28;45501;-62
2022/08/17 04:01:44;;;;;;;;;;;27.10;39.70;;;;;;4900996;28;47939;-62
2022/08/17 04:04:10;;;;;;;;;;;27.10;39.70;;;;;;4892112;28;45337;-62
2022/08/17 04:06:36;;;;;;;;;;;27.10;39.70;;;;;;4892419;29;45325;-62
2022/08/17 04:09:01;;;;;;;;;;;27.10;39.70;;;;;;4895760;29;45744;-62
2022/08/17 04:11:27;;;;;;;;;;;27.10;39.70;;;;;;4892666;29;45659;-62
2022/08/17 04:13:52;;;;;;;;;;;27.00;39.80;;;;;;4896207;29;45083;-62
2022/08/17 04:16:18;;;;;;;;;;;27.00;40.00;;;;;;4892645;29;45575;-62
2022/08/17 04:18:43;;;;;;;;;;;26.90;40.00;;;;;;4898196;29;45606;-62
2022/08/17 04:21:09;;;;;;;;;;;26.90;40.00;;;;;;4894760;28;46788;-62
2022/08/17 04:23:36;;;;;;;;;;;27.00;40.00;;;;;;4898355;29;45611;-63
2022/08/17 04:26:02;;;;;;;;;;;27.00;39.80;;;;;;4896173;28;45567;-62
2022/08/17 04:28:28;;;;;;;;;;;27.00;39.90;;;;;;4898009;29;45697;-62
2022/08/17 04:30:54;;;;;;;;;;;27.00;39.80;;;;;;4893830;29;45337;-63
2022/08/17 04:33:20;;;;;;;;;;;27.00;39.90;;;;;;4897261;29;45382;-62
2022/08/17 04:35:50;;;;;;;;;;;27.00;39.90;;;;;;4895386;29;45166;-62
2022/08/17 04:38:16;;;;;;;;;;;27.00;40.00;;;;;;4895683;29;44898;-62
2022/08/17 04:43:26;;;;;;;;;;;26.90;40.00;;;;;;4897045;28;44997;-62
2022/08/17 04:45:53;;;;;;;;;;;26.90;40.00;;;;;;4889765;28;45909;-62
2022/08/17 04:48:19;;;;;;;;;;;26.90;40.00;;;;;;4887824;29;45500;-62
2022/08/17 04:50:45;;;;;;;;;;;26.90;40.00;;;;;;4872568;29;47263;-63
2022/08/17 04:53:11;;;;;;;;;;;26.90;40.10;;;;;;4892020;29;45709;-62
2022/08/17 04:55:37;;;;;;;;;;;26.90;40.10;;;;;;4890528;28;45894;-61
2022/08/17 04:58:02;;;;;;;;;;;26.90;40.10;;;;;;4875274;29;45500;-62
2022/08/17 05:00:28;;;;;;;;;;;26.90;40.20;;;;;;4891693;28;46953;-62
2022/08/17 05:02:53;;;;;;;;;;;26.90;40.20;;;;;;4890624;28;45591;-62
2022/08/17 05:05:26;;;;;;;;;;;26.90;40.20;;;;;;4890482;29;45199;-63
2022/08/17 05:07:53;;;;;;;;;;;26.90;40.30;;;;;;4891621;29;45679;-62
2022/08/17 05:10:19;;;;;;;;;;;26.90;40.50;;;;;;4888925;28;46225;-62
2022/08/17 05:12:45;;;;;;;;;;;26.90;40.50;;;;;;4891695;28;44970;-63
2022/08/17 05:15:16;;;;;;;;;;;26.90;40.50;;;;;;4890792;28;45601;-62
2022/08/17 05:17:42;;;;;;;;;;;26.90;40.60;;;;;;4859950;29;45705;-62
2022/08/17 05:20:08;;;;;;;;;;;26.90;40.60;;;;;;4888103;28;46731;-61
2022/08/17 05:22:33;;;;;;;;;;;26.90;40.80;;;;;;4875311;29;45675;-61
2022/08/17 05:24:59;;;;;;;;;;;26.90;40.80;;;;;;4890000;29;45924;-62
2022/08/17 05:27:24;;;;;;;;;;;26.90;40.90;;;;;;4891739;29;45032;-62
2022/08/17 05:29:50;;;;;;;;;;;27.50;40.30;;;;;;4890029;29;45569;-62
2022/08/17 05:32:21;;;;;;;;;;;27.90;39.30;;;;;;4889154;28;45415;-63
2022/08/17 05:34:46;;;;;;;;;;;28.20;39.00;;;;;;4890777;29;45637;-62
2022/08/17 05:37:12;;;;;;;;;;;27.90;39.30;;;;;;4873736;29;44879;-62
2022/08/17 05:39:37;;;;;;;;;;;27.50;39.90;;;;;;4890106;29;47174;-62
2022/08/17 05:42:03;;;;;;;;;;;27.30;40.30;;;;;;4888925;28;44696;-62
2022/08/17 05:44:29;;;;;;;;;;;27.30;40.60;;;;;;4888826;29;45689;-63
2022/08/17 05:46:54;;;;;;;;;;;27.20;40.80;;;;;;4892279;28;45697;-63
2022/08/17 05:49:23;;;;;;;;;;;27.10;40.90;;;;;;4889563;29;48175;-62
2022/08/17 05:51:51;;;;;;;;;;;27.00;40.90;;;;;;4886404;29;45120;-63
2022/08/17 05:54:20;;;;;;;;;;;27.00;41.00;;;;;;4891251;29;45632;-62
2022/08/17 05:56:54;;;;;;;;;;;27.00;41.10;;;;;;4890852;29;45019;-62
2022/08/17 05:59:49;;;;;;;;;;;27.00;41.00;;;;;;4891328;29;45408;-62
2022/08/17 06:02:18;;;;;;;;;;;27.00;41.00;;;;;;4883757;29;45740;-62
2022/08/17 06:04:58;;;;;;;;;;;27.10;41.00;;;;;;4890312;29;45641;-62
2022/08/17 06:07:23;;;;;;;;;;;27.20;40.90;;;;;;4888742;29;45662;-63
2022/08/17 06:09:49;;;;;;;;;;;27.20;40.90;;;;;;4890704;29;45782;-62
2022/08/17 06:12:27;;;;;;;;;;;27.20;40.90;;;;;;4890388;28;45608;-62
2022/08/17 06:14:57;;;;;;;;;;;27.20;40.70;;;;;;4888069;28;45098;-62
2022/08/17 06:17:22;;;;;;;;;;;27.30;40.70;;;;;;4888192;29;45495;-61
2022/08/17 06:19:53;;;;;;;;;;;27.30;40.60;;;;;;4889935;28;46589;-63
2022/08/17 06:22:19;;;;;;;;;;;27.30;40.60;;;;;;4888338;28;45674;-62
2022/08/17 06:24:46;;;;;;;;;;;27.30;40.70;;;;;;4894551;29;46118;-62
2022/08/17 06:27:20;;;;;;;;;;;27.30;40.70;;;;;;4893491;29;45911;-62
2022/08/17 06:29:46;;;;;;;;;;;27.40;40.50;;;;;;4892165;29;44986;-62
2022/08/17 06:32:13;;;;;;;;;;;27.50;40.20;;;;;;4871549;29;45798;-62
2022/08/17 06:34:39;;;;;;;;;;;27.60;40.10;;;;;;4890471;29;45542;-62
2022/08/17 06:37:04;;;;;;;;;;;27.70;40.00;;;;;;4890239;29;45560;-63
2022/08/17 06:39:30;;;;;;;;;;;27.60;40.00;;;;;;4890152;29;45182;-62
2022/08/17 06:41:55;;;;;;;;;;;27.60;40.10;;;;;;4891269;29;45534;-62
2022/08/17 06:44:24;;;;;;;;;;;27.60;40.10;;;;;;4890580;29;45691;-61
2022/08/17 06:46:52;;;;;;;;;;;27.60;40.20;;;;;;4888965;29;45487;-62
2022/08/17 06:49:27;;;;;;;;;;;27.60;40.20;;;;;;4886737;29;47082;-62
2022/08/17 06:51:56;;;;;;;;;;;27.60;40.20;;;;;;4886860;29;45494;-63
2022/08/17 06:54:22;;;;;;;;;;;27.60;40.20;;;;;;4871993;29;45467;-62
2022/08/17 06:56:50;;;;;;;;;;;27.60;40.10;;;;;;4889944;29;45672;-62
2022/08/17 06:59:17;;;;;;;;;;;27.70;40.20;;;;;;4871425;29;47141;-61
2022/08/17 07:01:44;;;;;;;;;;;27.70;40.10;;;;;;4880762;29;45616;-62
2022/08/17 07:04:10;;;;;;;;;;;27.80;40.00;;;;;;4887637;29;45500;-62
2022/08/17 07:06:46;;;;;;;;;;;27.80;39.90;;;;;;4888992;28;45376;-62
2022/08/17 07:09:24;;;;;;;;;;;27.90;39.80;;;;;;4890884;29;46456;-63
2022/08/17 07:12:09;;;;;;;;;;;27.90;39.60;;;;;;4894030;28;44861;-63
2022/08/17 07:14:39;;;;;;;;;;;27.90;39.50;;;;;;4894717;28;44878;-63
2022/08/17 07:17:12;;;;;;;;;;;28.00;39.40;;;;;;4891414;28;45471;-62
2022/08/17 07:19:39;;;;;;;;;;;27.90;40.00;;;;;;4894972;28;46564;-63
2022/08/17 07:22:07;;;;;;;;;;;28.00;39.50;;;;;;4891779;29;45198;-62
2022/08/17 07:24:38;;;;;;;;;;;27.90;39.40;;;;;;4891944;28;45434;-62
2022/08/17 07:27:05;;;;;;;;;;;28.00;39.40;;;;;;4891663;29;45127;-63
2022/08/17 07:29:33;;;;;;;;;;;28.00;39.40;;;;;;4889956;28;45267;-62
2022/08/17 07:31:58;;;;;;;;;;;28.00;39.40;;;;;;4875590;29;45554;-62
2022/08/17 07:34:24;;;;;;;;;;;28.00;39.40;;;;;;4894257;29;45648;-63
2022/08/17 07:37:00;;;;;;;;;;;28.00;39.30;;;;;;4905280;28;45692;-63
2022/08/17 07:39:26;;;;;;;;;;;28.10;39.30;;;;;;4905362;28;46114;-62
2022/08/17 07:41:52;;;;;;;;;;;28.10;39.30;;;;;;4890230;28;45838;-62
2022/08/17 07:44:17;;;;;;;;;;;28.10;39.30;;;;;;4893871;29;45618;-63
2022/08/17 07:49:32;;;;;;;;;;;28.10;39.30;;;;;;4896211;28;46040;-62
2022/08/17 07:52:08;;;;;;;;;;;28.20;39.20;;;;;;4893386;28;45427;-62
2022/08/17 07:54:35;;;;;;;;;;;28.20;39.20;;;;;;4881667;29;45202;-61
2022/08/17 07:57:07;;;;;;;;;;;28.20;39.20;;;;;;4894625;28;45802;-63
2022/08/17 07:59:36;;;;;;;;;;;28.30;39.80;;;;;;4895819;29;46391;-62
2022/08/17 08:02:12;;;;;;;;;;;28.30;39.20;;;;;;4892869;28;45405;-62
2022/08/17 08:04:37;;;;;;;;;;;28.30;39.10;;;;;;4897246;28;45518;-62
2022/08/17 08:07:06;;;;;;;;;;;28.40;39.10;;;;;;4895250;29;45639;-63
2022/08/17 08:09:39;;;;;;;;;;;28.40;39.10;;;;;;4895263;28;46398;-61
2022/08/17 08:12:22;;;;;;;;;;;28.40;39.00;;;;;;4896270;28;44936;-62
2022/08/17 08:14:55;;;;;;;;;;;28.40;39.00;;;;;;4895331;28;45243;-62
2022/08/17 08:17:22;;;;;;;;;;;28.50;39.00;;;;;;4893530;28;45689;-62
2022/08/17 08:19:48;;;;;;;;;;;28.50;38.90;;;;;;4893084;29;45990;-62
2022/08/17 08:22:39;;;;;;;;;;;28.50;38.90;;;;;;4891042;28;44938;-62
2022/08/17 08:25:18;;;;;;;;;;;28.60;38.80;;;;;;4880031;28;45020;-62
2022/08/17 08:27:49;;;;;;;;;;;28.60;38.80;;;;;;4894017;29;45194;-62
2022/08/17 08:30:15;;;;;;;;;;;28.70;38.70;;;;;;4886260;28;45463;-63
2022/08/17 08:32:46;;;;;;;;;;;28.70;38.70;;;;;;4895325;28;44941;-63
2022/08/17 08:35:32;;;;;;;;;;;28.70;38.60;;;;;;4892161;28;45503;-61
2022/08/17 08:38:17;;;;;;;;;;;28.80;38.50;;;;;;4887516;28;45491;-62
2022/08/17 08:41:00;;;;;;;;;;;28.90;38.90;;;;;;4891762;29;45455;-63
2022/08/17 08:43:49;;;;;;;;;;;28.90;38.60;;;;;;4892069;29;45280;-63
2022/08/17 08:46:20;;;;;;;;;;;28.90;38.60;;;;;;4855835;28;45421;-62
2022/08/17 08:48:46;;;;;;;;;;;28.90;38.50;;;;;;4891654;28;45587;-62
2022/08/17 08:51:27;;;;;;;;;;;29.00;38.50;;;;;;4888588;29;45697;-63
2022/08/17 08:53:59;;;;;;;;;;;29.00;38.40;;;;;;4889011;29;45185;-62
2022/08/17 08:56:40;;;;;;;;;;;29.10;38.30;;;;;;4859922;29;45535;-62
2022/08/17 08:59:26;;;;;;;;;;;29.10;38.20;;;;;;4891596;29;45574;-63
2022/08/17 09:01:58;;;;;;;;;;;29.10;38.00;;;;;;4887706;28;46547;-62
2022/08/17 09:04:37;;;;;;;;;;;29.20;38.00;;;;;;4877165;29;45225;-63
2022/08/17 09:07:31;;;;;;;;;;;29.20;37.90;;;;;;4892291;29;45578;-62
2022/08/17 09:10:15;;;;;;;;;;;29.20;38.40;;;;;;4890049;29;45561;-63
2022/08/17 09:12:49;;;;;;;;;;;29.30;37.90;;;;;;4893740;29;46030;-63
2022/08/17 09:15:16;;;;;;;;;;;29.30;37.70;;;;;;4876349;29;45487;-62
2022/08/17 09:17:50;;;;;;;;;;;29.40;37.80;;;;;;4877952;29;45415;-62
2022/08/17 09:20:24;;;;;;;;;;;29.40;37.70;;;;;;4890382;28;45712;-62
2022/08/17 09:22:54;;;;;;;;;;;29.40;37.70;;;;;;4877274;29;45871;-63
2022/08/17 09:25:25;;;;;;;;;;;29.40;37.50;;;;;;4888781;29;44955;-62
2022/08/17 09:28:18;;;;;;;;;;;29.50;37.30;;;;;;4889514;29;45660;-63
2022/08/17 09:30:44;;;;;;;;;;;29.50;37.10;;;;;;4883908;28;45260;-61
2022/08/17 09:33:10;;;;;;;;;;;29.50;37.10;;;;;;4889065;28;46190;-63
2022/08/17 09:36:02;;;;;;;;;;;29.60;36.90;;;;;;4890793;28;45008;-63
2022/08/17 09:38:32;;;;;;;;;;;29.60;36.90;;;;;;4869108;29;45445;-62
2022/08/17 09:41:16;;;;;;;;;;;29.70;36.60;;;;;;4889079;29;45482;-62
2022/08/17 09:43:44;;;;;;;;;;;29.70;36.60;;;;;;4892369;28;45564;-62
2022/08/17 09:46:18;;;;;;;;;;;29.70;36.70;;;;;;4857773;28;45169;-62
2022/08/17 09:48:43;;;;;;;;;;;29.70;36.20;;;;;;4878140;29;45383;-60
2022/08/17 09:51:12;;;;;;;;;;;29.80;36.30;;;;;;4888065;29;45329;-62
2022/08/17 09:53:38;;;;;;;;;;;29.80;36.20;;;;;;4889572;29;46507;-62
2022/08/17 09:56:09;;;;;;;;;;;29.80;36.20;;;;;;4892876;29;45225;-62
2022/08/17 09:58:49;;;;;;;;;;;29.80;36.20;;;;;;4892135;29;45450;-61
2022/08/17 10:01:17;;;;;;;;;;;29.80;36.00;;;;;;4890478;28;45646;-62
2022/08/17 10:03:44;;;;;;;;;;;29.90;36.00;;;;;;4873962;28;46151;-62
2022/08/17 10:06:12;;;;;;;;;;;29.90;36.10;;;;;;4886971;28;45234;-62
2022/08/17 10:08:40;;;;;;;;;;;30.00;35.90;;;;;;4858649;29;45479;-63
2022/08/17 10:11:06;;;;;;;;;;;30.00;35.70;;;;;;4889493;29;45627;-63
2022/08/17 10:13:43;;;;;;;;;;;30.00;35.80;;;;;;4890898;29;45508;-62
2022/08/17 10:16:29;;;;;;;;;;;30.00;35.70;;;;;;4891792;28;45562;-62
2022/08/17 10:18:55;;;;;;;;;;;30.10;35.50;;;;;;4890701;29;45567;-62
2022/08/17 10:26:50;;;;;;;;;;;30.10;35.30;;;;;;4876820;29;45023;-62
2022/08/17 10:29:40;;;;;;;;;;;30.20;35.30;;;;;;4865980;29;45592;-62
2022/08/17 10:32:08;;;;;;;;;;;30.20;35.10;;;;;;4884402;28;45514;-63
2022/08/17 10:34:40;;;;;;;;;;;30.20;34.90;;;;;;4858176;29;47099;-62
2022/08/17 10:37:05;;;;;;;;;;;30.20;34.70;;;;;;4893416;28;45028;-62
2022/08/17 10:39:35;;;;;;;;;;;30.20;34.40;;;;;;4888130;28;45407;-62
2022/08/17 10:42:19;;;;;;;;;;;30.30;34.30;;;;;;4875407;29;45422;-63
2022/08/17 10:44:49;;;;;;;;;;;30.30;34.40;;;;;;4892829;28;46175;-63
2022/08/17 10:47:15;;;;;;;;;;;30.30;34.10;;;;;;4874778;29;45484;-62
2022/08/17 10:49:46;;;;;;;;;;;30.40;34.00;;;;;;4887467;28;45594;-62
2022/08/17 10:52:20;;;;;;;;;;;30.40;33.90;;;;;;4889420;29;45305;-63
2022/08/17 10:54:47;;;;;;;;;;;30.40;33.60;;;;;;4890512;28;46994;-63
2022/08/17 10:57:31;;;;;;;;;;;30.40;33.40;;;;;;4891928;28;45005;-62
2022/08/17 10:59:57;;;;;;;;;;;30.40;33.10;;;;;;4885933;28;45050;-63
2022/08/17 11:02:26;;;;;;;;;;;30.40;33.00;;;;;;4875585;28;45411;-62
2022/08/17 11:04:54;;;;;;;;;;;30.50;33.70;;;;;;4890764;29;46895;-62
2022/08/17 11:07:24;;;;;;;;;;;30.50;33.00;;;;;;4875990;28;45690;-63
2022/08/17 11:10:11;;;;;;;;;;;30.60;32.90;;;;;;4890823;28;45297;-62
2022/08/17 11:12:37;;;;;;;;;;;30.60;33.00;;;;;;4838967;28;45548;-62
2022/08/17 11:15:03;;;;;;;;;;;30.60;33.10;;;;;;4890735;29;45459;-63
2022/08/17 11:17:34;;;;;;;;;;;30.50;33.10;;;;;;4876193;29;44944;-62
2022/08/17 11:20:04;;;;;;;;;;;30.60;33.00;;;;;;4879033;29;44853;-63
2022/08/17 11:22:54;;;;;;;;;;;30.60;32.90;;;;;;4894918;29;46428;-63
2022/08/17 11:25:21;;;;;;;;;;;30.60;32.80;;;;;;4878191;29;46374;-62
2022/08/17 11:27:52;;;;;;;;;;;30.60;32.80;;;;;;4879982;29;45286;-62
2022/08/17 11:30:37;;;;;;;;;;;30.60;32.50;;;;;;4879493;28;45342;-63
2022/08/17 11:33:23;;;;;;;;;;;30.60;32.50;;;;;;4895913;28;45756;-62
2022/08/17 11:35:49;;;;;;;;;;;30.60;32.50;;;;;;4895146;28;45458;-63
2022/08/17 11:38:25;;;;;;;;;;;30.60;32.50;;;;;;4864429;29;45350;-63
2022/08/17 11:41:00;;;;;;;;;;;30.60;32.30;;;;;;4892631;28;44967;-63
2022/08/17 11:43:45;;;;;;;;;;;30.70;32.10;;;;;;4869027;29;45626;-62
2022/08/17 11:46:13;;;;;;;;;;;30.70;31.90;;;;;;4886187;28;47142;-63
2022/08/17 11:51:53;;;;;;;;;;;30.80;31.60;;;;;;4857442;29;45874;-62
2022/08/17 11:54:28;;;;;;;;;;;30.80;31.50;;;;;;4891856;28;45606;-63
2022/08/17 11:56:54;;;;;;;;;;;30.80;30.90;;;;;;4894318;28;46209;-63
2022/08/17 11:59:29;;;;;;;;;;;30.80;30.70;;;;;;4892524;28;45426;-62
2022/08/17 12:01:55;;;;;;;;;;;30.80;30.60;;;;;;4893713;28;45582;-62
2022/08/17 12:04:28;;;;;;;;;;;30.90;30.50;;;;;;4893041;28;45610;-62
2022/08/17 12:06:55;;;;;;;;;;;30.90;30.10;;;;;;4894790;29;46707;-63
2022/08/17 12:09:23;;;;;;;;;;;30.90;30.20;;;;;;4893971;28;45652;-63
2022/08/17 12:11:51;;;;;;;;;;;30.80;30.20;;;;;;4895038;28;45802;-63
2022/08/17 12:14:21;;;;;;;;;;;30.90;29.90;;;;;;4893464;28;45505;-62
2022/08/17 12:16:59;;;;;;;;;;;30.80;30.10;;;;;;4891202;28;45983;-63
2022/08/17 12:19:28;;;;;;;;;;;30.80;30.20;;;;;;4891029;29;45072;-63
2022/08/17 12:21:57;;;;;;;;;;;30.80;30.30;;;;;;4892875;28;45044;-62
2022/08/17 12:24:23;;;;;;;;;;;30.80;30.60;;;;;;4879183;29;45115;-62
2022/08/17 12:26:53;;;;;;;;;;;30.80;30.50;;;;;;4892085;28;46376;-63
2022/08/17 12:29:28;;;;;;;;;;;30.80;30.50;;;;;;4893268;28;45709;-62
2022/08/17 12:31:54;;;;;;;;;;;30.90;30.70;;;;;;4878329;29;45589;-63
2022/08/17 12:34:31;;;;;;;;;;;30.80;30.50;;;;;;4883978;29;45622;-62
2022/08/17 12:36:58;;;;;;;;;;;30.90;30.60;;;;;;4891118;28;45253;-63
2022/08/17 12:39:25;;;;;;;;;;;30.90;30.70;;;;;;4886797;28;45503;-62
2022/08/17 12:41:51;;;;;;;;;;;30.80;30.60;;;;;;4890648;28;45114;-62
2022/08/17 12:44:21;;;;;;;;;;;30.90;30.40;;;;;;4879802;29;44682;-63
2022/08/17 12:47:09;;;;;;;;;;;30.90;30.60;;;;;;4894212;29;45568;-63
2022/08/17 12:49:36;;;;;;;;;;;30.90;30.60;;;;;;4881285;29;45253;-62
2022/08/17 12:52:04;;;;;;;;;;;30.90;30.60;;;;;;4895564;28;45516;-63
2022/08/17 12:54:36;;;;;;;;;;;31.00;30.60;;;;;;4892228;28;45652;-63
2022/08/17 12:57:04;;;;;;;;;;;31.00;30.50;;;;;;4865899;29;47003;-63
2022/08/17 12:59:31;;;;;;;;;;;31.00;30.30;;;;;;4895811;29;45259;-63
2022/08/17 13:01:57;;;;;;;;;;;31.00;30.40;;;;;;4892924;28;45640;-63
2022/08/17 13:04:23;;;;;;;;;;;31.00;30.50;;;;;;4896350;29;45433;-62
2022/08/17 13:06:50;;;;;;;;;;;31.00;30.50;;;;;;4894573;28;47435;-62
2022/08/17 13:09:25;;;;;;;;;;;31.00;30.60;;;;;;4889323;28;45048;-63
2022/08/17 13:11:54;;;;;;;;;;;31.00;30.40;;;;;;4893460;28;45211;-63
2022/08/17 13:14:20;;;;;;;;;;;31.00;30.30;;;;;;4895550;29;45325;-62
2022/08/17 13:16:50;;;;;;;;;;;31.00;30.00;;;;;;4893949;28;45946;-63
2022/08/17 13:19:19;;;;;;;;;;;31.10;30.10;;;;;;4896779;29;45324;-63
2022/08/17 13:21:48;;;;;;;;;;;31.00;29.90;;;;;;4878331;29;46258;-63
2022/08/17 13:24:20;;;;;;;;;;;31.00;29.90;;;;;;4892365;28;45401;-63
2022/08/17 13:26:45;;;;;;;;;;;31.10;29.80;;;;;;4892420;28;46098;-62
2022/08/17 13:29:37;;;;;;;;;;;31.00;29.80;;;;;;4875798;28;44824;-63
2022/08/17 13:32:03;;;;;;;;;;;31.10;29.90;;;;;;4856667;28;45459;-63
2022/08/17 13:34:55;;;;;;;;;;;31.10;29.80;;;;;;4896031;29;45459;-63
2022/08/17 13:37:31;;;;;;;;;;;31.10;29.80;;;;;;4892765;29;47131;-63
2022/08/17 13:39:56;;;;;;;;;;;31.10;29.80;;;;;;4894143;29;45111;-63
2022/08/17 13:42:28;;;;;;;;;;;31.00;29.90;;;;;;4891063;28;45301;-62
2022/08/17 13:44:53;;;;;;;;;;;31.00;30.00;;;;;;4875448;29;44787;-62
2022/08/17 13:47:19;;;;;;;;;;;31.00;30.00;;;;;;4893669;28;45982;-63
2022/08/17 13:49:44;;;;;;;;;;;31.10;30.00;;;;;;4879334;29;45496;-63
2022/08/17 13:52:29;;;;;;;;;;;31.00;30.00;;;;;;4875727;29;45258;-62
2022/08/17 13:54:54;;;;;;;;;;;31.10;30.00;;;;;;4894260;29;45097;-63
2022/08/17 13:57:21;;;;;;;;;;;31.00;30.00;;;;;;4896040;28;45922;-62
2022/08/17 13:59:47;;;;;;;;;;;31.10;30.00;;;;;;4891901;28;45598;-63
2022/08/17 14:02:13;;;;;;;;;;;31.10;30.10;;;;;;4892418;28;44977;-62
2022/08/17 14:04:39;;;;;;;;;;;31.10;30.30;;;;;;4885945;28;45040;-63
2022/08/17 14:07:08;;;;;;;;;;;31.10;30.30;;;;;;4888827;28;47055;-63
2022/08/17 14:09:35;;;;;;;;;;;31.10;30.30;;;;;;4891762;28;45515;-63
2022/08/17 14:12:01;;;;;;;;;;;31.10;30.30;;;;;;4890816;28;44696;-63
2022/08/17 14:14:28;;;;;;;;;;;31.20;30.40;;;;;;4893852;29;45059;-63
2022/08/17 14:16:53;;;;;;;;;;;31.20;30.40;;;;;;4896922;28;46179;-63
2022/08/17 14:19:20;;;;;;;;;;;31.10;30.30;;;;;;4892945;28;45542;-63
2022/08/17 14:21:46;;;;;;;;;;;31.20;30.50;;;;;;4898018;28;45754;-63
2022/08/17 14:24:19;;;;;;;;;;;31.20;30.50;;;;;;4876749;29;45648;-63
2022/08/17 14:26:44;;;;;;;;;;;31.20;30.60;;;;;;4874486;29;46157;-63
2022/08/17 14:29:10;;;;;;;;;;;31.20;30.70;;;;;;4891415;28;45041;-63
2022/08/17 14:31:37;;;;;;;;;;;31.20;30.90;;;;;;4889929;28;45032;-63
2022/08/17 14:34:03;;;;;;;;;;;31.20;31.10;;;;;;4891216;28;45663;-63
2022/08/17 14:36:30;;;;;;;;;;;31.20;31.30;;;;;;4887188;28;45645;-63
2022/08/17 14:38:55;;;;;;;;;;;31.20;31.50;;;;;;4890865;28;45260;-63
2022/08/17 14:41:22;;;;;;;;;;;31.20;31.70;;;;;;4895142;29;44795;-62
2022/08/17 14:43:48;;;;;;;;;;;31.20;31.80;;;;;;4897028;29;45275;-63
2022/08/17 14:46:13;;;;;;;;;;;31.20;31.90;;;;;;4880375;29;45984;-63
2022/08/17 14:48:39;;;;;;;;;;;31.20;31.90;;;;;;4898572;28;45195;-62
2022/08/17 14:51:05;;;;;;;;;;;31.20;32.00;;;;;;4896404;28;45194;-63
2022/08/17 14:53:30;;;;;;;;;;;31.20;32.10;;;;;;4894912;28;45442;-62
2022/08/17 14:55:56;;;;;;;;;;;31.20;32.10;;;;;;4896301;28;46084;-63
2022/08/17 14:58:22;;;;;;;;;;;31.20;32.20;;;;;;4901960;28;44753;-62
2022/08/17 15:00:49;;;;;;;;;;;31.20;32.20;;;;;;4897037;28;45798;-63
2022/08/17 15:03:15;;;;;;;;;;;31.20;32.30;;;;;;4881606;29;45125;-63
2022/08/17 15:05:42;;;;;;;;;;;31.20;32.40;;;;;;4894477;29;46168;-63
2022/08/17 15:08:08;;;;;;;;;;;31.20;32.40;;;;;;4895420;29;45333;-63
2022/08/17 15:10:34;;;;;;;;;;;31.10;32.30;;;;;;4896013;28;45217;-62
2022/08/17 15:12:59;;;;;;;;;;;31.20;32.40;;;;;;4896569;28;45199;-62
2022/08/17 15:15:25;;;;;;;;;;;31.10;32.30;;;;;;4897479;29;45438;-63
2022/08/17 15:17:50;;;;;;;;;;;31.10;32.30;;;;;;4881921;29;45377;-63
2022/08/17 15:20:17;;;;;;;;;;;31.10;32.40;;;;;;4895160;28;45361;-63
2022/08/17 15:22:43;;;;;;;;;;;31.10;32.40;;;;;;4896801;28;45373;-62
2022/08/17 15:25:09;;;;;;;;;;;31.00;32.30;;;;;;4893829;28;46864;-63
2022/08/17 15:27:35;;;;;;;;;;;31.10;32.40;;;;;;4882631;29;45613;-63
2022/08/17 15:30:01;;;;;;;;;;;31.10;32.50;;;;;;4881108;29;45491;-62
2022/08/17 15:32:27;;;;;;;;;;;31.00;32.40;;;;;;4900359;28;45414;-63
2022/08/17 15:34:56;;;;;;;;;;;31.10;32.60;;;;;;4898662;28;45406;-63
2022/08/17 15:37:22;;;;;;;;;;;31.00;32.60;;;;;;4899264;28;45063;-63
2022/08/17 15:39:48;;;;;;;;;;;31.00;32.70;;;;;;4897647;28;45888;-62
2022/08/17 15:42:14;;;;;;;;;;;31.00;32.80;;;;;;4894837;28;46206;-63
2022/08/17 15:44:43;;;;;;;;;;;31.00;32.90;;;;;;4867091;29;45874;-63
2022/08/17 15:47:09;;;;;;;;;;;31.00;32.80;;;;;;4894703;29;45502;-63
2022/08/17 15:49:37;;;;;;;;;;;31.00;32.90;;;;;;4881889;29;45486;-63
2022/08/17 15:52:13;;;;;;;;;;;31.00;32.90;;;;;;4896572;28;45060;-63
2022/08/17 15:54:38;;;;;;;;;;;31.00;33.00;;;;;;4900769;28;46282;-63
2022/08/17 15:57:04;;;;;;;;;;;31.00;33.00;;;;;;4893492;28;45362;-63
2022/08/17 15:59:30;;;;;;;;;;;31.00;33.00;;;;;;4896872;29;45486;-62
2022/08/17 16:01:55;;;;;;;;;;;31.00;33.00;;;;;;4894838;29;45206;-63
2022/08/17 16:04:22;;;;;;;;;;;30.90;32.80;;;;;;4894221;29;45433;-62
2022/08/17 16:06:49;;;;;;;;;;;30.90;32.80;;;;;;4895122;28;45344;-63
2022/08/17 16:09:15;;;;;;;;;;;30.90;32.80;;;;;;4902072;28;45295;-63
2022/08/17 16:11:41;;;;;;;;;;;30.90;32.80;;;;;;4884265;29;45240;-63
2022/08/17 16:14:07;;;;;;;;;;;30.90;32.80;;;;;;4899693;28;46125;-62
2022/08/17 16:16:32;;;;;;;;;;;30.90;32.80;;;;;;4900528;28;45400;-63
2022/08/17 16:18:58;;;;;;;;;;;30.90;32.70;;;;;;4896653;28;45334;-62
2022/08/17 16:21:24;;;;;;;;;;;30.90;32.70;;;;;;4902215;28;44887;-63
2022/08/17 16:23:51;;;;;;;;;;;30.90;32.80;;;;;;4898505;28;45545;-63
2022/08/17 16:26:17;;;;;;;;;;;30.90;32.80;;;;;;4900333;28;45652;-63
2022/08/17 16:28:43;;;;;;;;;;;30.80;32.80;;;;;;4886533;29;45768;-63
2022/08/17 16:31:09;;;;;;;;;;;30.80;32.90;;;;;;4884997;29;45872;-63
2022/08/17 16:33:35;;;;;;;;;;;30.80;32.90;;;;;;4898167;28;46022;-63
2022/08/17 16:36:00;;;;;;;;;;;30.80;33.00;;;;;;4896829;28;45311;-63
2022/08/17 16:38:26;;;;;;;;;;;30.80;33.00;;;;;;4900017;28;45251;-63
2022/08/17 16:40:51;;;;;;;;;;;30.80;32.90;;;;;;4899633;28;45246;-63
2022/08/17 16:43:17;;;;;;;;;;;30.80;32.90;;;;;;4895665;29;46822;-62
2022/08/17 16:45:43;;;;;;;;;;;30.80;33.00;;;;;;4899193;28;45214;-63
2022/08/17 16:48:08;;;;;;;;;;;30.80;33.00;;;;;;4897139;28;45564;-63
2022/08/17 16:50:34;;;;;;;;;;;30.80;33.10;;;;;;4900752;28;45035;-62
2022/08/17 16:53:10;;;;;;;;;;;30.70;33.20;;;;;;4898271;28;45994;-63
2022/08/17 16:55:35;;;;;;;;;;;30.70;33.20;;;;;;4899789;28;45235;-62
2022/08/17 16:58:02;;;;;;;;;;;30.70;33.20;;;;;;4882011;29;45704;-62
2022/08/17 17:00:28;;;;;;;;;;;30.70;33.20;;;;;;4896389;28;45751;-63
2022/08/17 17:02:55;;;;;;;;;;;30.70;33.30;;;;;;4884571;28;45379;-63
2022/08/17 17:05:27;;;;;;;;;;;30.70;33.20;;;;;;4904037;28;45177;-62
2022/08/17 17:07:54;;;;;;;;;;;30.70;33.30;;;;;;4898247;28;45336;-63
2022/08/17 17:10:23;;;;;;;;;;;30.70;33.30;;;;;;4897768;28;45379;-62
2022/08/17 17:12:49;;;;;;;;;;;30.70;33.40;;;;;;4880672;28;47132;-63
2022/08/17 17:15:17;;;;;;;;;;;30.70;33.40;;;;;;4896173;29;45049;-63
2022/08/17 17:17:43;;;;;;;;;;;30.70;33.50;;;;;;4897876;29;45563;-63
2022/08/17 17:20:10;;;;;;;;;;;30.70;33.50;;;;;;4865310;28;45569;-63
2022/08/17 17:22:54;;;;;;;;;;;30.70;33.50;;;;;;4879680;29;45349;-63
2022/08/17 17:25:28;;;;;;;;;;;30.70;33.60;;;;;;4893180;28;45414;-63
2022/08/17 17:27:59;;;;;;;;;;;30.70;33.50;;;;;;4893283;28;45026;-62
2022/08/17 17:30:47;;;;;;;;;;;30.70;33.70;;;;;;4895380;28;45326;-63
2022/08/17 17:33:17;;;;;;;;;;;30.60;33.60;;;;;;4893735;28;46918;-63
2022/08/17 17:35:47;;;;;;;;;;;30.60;33.70;;;;;;4895454;28;45211;-63
2022/08/17 17:38:18;;;;;;;;;;;30.60;33.70;;;;;;4893407;28;45576;-63
2022/08/17 17:40:46;;;;;;;;;;;30.60;33.80;;;;;;4897737;28;45487;-63
2022/08/17 17:43:13;;;;;;;;;;;30.60;33.80;;;;;;4894512;28;46378;-63
2022/08/17 17:45:47;;;;;;;;;;;30.60;33.80;;;;;;4895334;28;44930;-63
2022/08/17 17:48:13;;;;;;;;;;;30.60;33.90;;;;;;4897528;28;45264;-63
2022/08/17 17:50:49;;;;;;;;;;;30.60;33.90;;;;;;4891036;28;45465;-63
2022/08/17 17:53:18;;;;;;;;;;;30.50;34.00;;;;;;4869078;29;46172;-62
2022/08/17 17:55:46;;;;;;;;;;;30.50;34.00;;;;;;4894023;29;45306;-63